sensor_id;sensor_type;location;lat;lon;timestamp;temperature;humidity
35603;DHT22;21725;50.836;4.368;2023-04-24T07:37:26;11.50;99.90
35603;DHT22;21725;50.836;4.368;2023-04-24T07:40:28;11.60;99.90
35603;DHT22;21725;50.836;4.368;2023-04-24T07:43:29;11.50;99.90
35603;DHT22;21725;50.836;4.368;2023-04-24T07:46:30;11.40;99.90
35603;DHT22;21725;50.836;4.368;2023-04-24T07:49:36;11.30;99.90
35603;DHT22;21725;50.836;4.368;2023-04-24T07:52:36;11.30;99.90
35603;DHT22;21725;50.836;4.368;2023-04-24T07:55:37;11.30;99.90
35603;DHT22;21725;50.836;4.368;2023-04-24T07:58:38;11.60;99.90
35603;DHT22;21725;50.836;4.368;2023-04-24T08:01:39;11.80;99.90
35603;DHT22;21725;50.836;4.368;2023-04-24T08:04:40;11.80;99.90
35603;DHT22;21725;50.836;4.368;2023-04-24T08:07:41;11.70;99.90
35603;DHT22;21725;50.836;4.368;2023-04-24T08:10:43;11.70;99.90
35603;DHT22;21725;50.836;4.368;2023-04-24T08:13:43;11.70;99.90
35603;DHT22;21725;50.836;4.368;2023-04-24T08:16:44;11.80;99.90
35603;DHT22;21725;50.836;4.368;2023-04-24T08:19:45;11.80;99.90
35603;DHT22;21725;50.836;4.368;2023-04-24T08:22:48;11.80;99.90
35603;DHT22;21725;50.836;4.368;2023-04-24T08:25:51;11.70;99.90
35603;DHT22;21725;50.836;4.368;2023-04-24T08:28:52;12.10;99.90
35603;DHT22;21725;50.836;4.368;2023-04-24T08:31:53;12.20;99.90
35603;DHT22;21725;50.836;4.368;2023-04-24T08:34:56;12.20;99.90
35603;DHT22;21725;50.836;4.368;2023-04-24T08:38:02;12.30;99.90
35603;DHT22;21725;50.836;4.368;2023-04-24T08:41:06;12.20;99.90
35603;DHT22;21725;50.836;4.368;2023-04-24T08:44:07;12.20;99.90
35603;DHT22;21725;50.836;4.368;2023-04-24T08:47:09;12.10;99.90
35603;DHT22;21725;50.836;4.368;2023-04-24T08:50:11;12.20;99.90
35603;DHT22;21725;50.836;4.368;2023-04-24T08:53:13;12.50;99.90
35603;DHT22;21725;50.836;4.368;2023-04-24T08:56:14;12.70;99.90
35603;DHT22;21725;50.836;4.368;2023-04-24T09:02:29;13.20;99.90
35603;DHT22;21725;50.836;4.368;2023-04-24T09:05:35;13.20;99.90
35603;DHT22;21725;50.836;4.368;2023-04-24T09:08:54;13.70;99.90
35603;DHT22;21725;50.836;4.368;2023-04-24T09:12:04;13.50;99.90
35603;DHT22;21725;50.836;4.368;2023-04-24T09:15:34;13.60;99.90
35603;DHT22;21725;50.836;4.368;2023-04-24T09:18:38;13.70;99.90
35603;DHT22;21725;50.836;4.368;2023-04-24T09:22:02;13.80;99.70
35603;DHT22;21725;50.836;4.368;2023-04-24T09:25:09;13.80;99.90
35603;DHT22;21725;50.836;4.368;2023-04-24T09:28:16;13.70;99.20
35603;DHT22;21725;50.836;4.368;2023-04-24T09:31:19;13.50;99.90
35603;DHT22;21725;50.836;4.368;2023-04-24T09:34:26;13.50;99.80
35603;DHT22;21725;50.836;4.368;2023-04-24T09:37:45;13.20;99.90
35603;DHT22;21725;50.836;4.368;2023-04-24T09:40:46;13.00;99.70
35603;DHT22;21725;50.836;4.368;2023-04-24T09:44:10;12.50;99.50
35603;DHT22;21725;50.836;4.368;2023-04-24T09:47:40;12.80;99.90
35603;DHT22;21725;50.836;4.368;2023-04-24T09:50:46;13.50;99.10
35603;DHT22;21725;50.836;4.368;2023-04-24T09:53:52;13.20;98.20
35603;DHT22;21725;50.836;4.368;2023-04-24T09:57:04;13.10;98.50
35603;DHT22;21725;50.836;4.368;2023-04-24T10:00:11;13.00;98.70
35603;DHT22;21725;50.836;4.368;2023-04-24T10:03:35;13.00;99.00
35603;DHT22;21725;50.836;4.368;2023-04-24T10:07:00;13.20;98.00
35603;DHT22;21725;50.836;4.368;2023-04-24T10:10:13;13.50;97.70
35603;DHT22;21725;50.836;4.368;2023-04-24T10:13:17;13.30;96.80
35603;DHT22;21725;50.836;4.368;2023-04-24T10:16:26;13.10;97.70
35603;DHT22;21725;50.836;4.368;2023-04-24T10:19:46;13.30;97.30
35603;DHT22;21725;50.836;4.368;2023-04-24T10:22:53;13.20;97.50
35603;DHT22;21725;50.836;4.368;2023-04-24T10:25:54;13.10;97.70
35603;DHT22;21725;50.836;4.368;2023-04-24T10:29:06;12.90;98.20
35603;DHT22;21725;50.836;4.368;2023-04-24T10:32:14;12.90;99.10
35603;DHT22;21725;50.836;4.368;2023-04-24T10:35:19;12.90;98.70
35603;DHT22;21725;50.836;4.368;2023-04-24T10:38:26;13.00;98.60
35603;DHT22;21725;50.836;4.368;2023-04-24T10:41:36;13.10;98.50
35603;DHT22;21725;50.836;4.368;2023-04-24T10:44:50;13.10;98.40
35603;DHT22;21725;50.836;4.368;2023-04-24T10:47:57;13.60;98.80
35603;DHT22;21725;50.836;4.368;2023-04-24T10:51:21;14.20;97.10
35603;DHT22;21725;50.836;4.368;2023-04-24T10:58:04;14.30;95.90
35603;DHT22;21725;50.836;4.368;2023-04-24T11:01:07;13.60;96.10
35603;DHT22;21725;50.836;4.368;2023-04-24T11:04:13;13.70;96.60
35603;DHT22;21725;50.836;4.368;2023-04-24T11:08:15;13.50;97.20
35603;DHT22;21725;50.836;4.368;2023-04-24T11:11:28;13.70;97.20
35603;DHT22;21725;50.836;4.368;2023-04-24T11:18:04;13.70;96.90
35603;DHT22;21725;50.836;4.368;2023-04-24T11:21:20;13.60;96.90
35603;DHT22;21725;50.836;4.368;2023-04-24T11:27:50;14.40;96.20
35603;DHT22;21725;50.836;4.368;2023-04-24T11:35:19;15.00;94.30
35603;DHT22;21725;50.836;4.368;2023-04-24T11:38:21;14.90;94.90
35603;DHT22;21725;50.836;4.368;2023-04-24T11:41:29;14.70;94.00
35603;DHT22;21725;50.836;4.368;2023-04-24T11:44:42;14.40;94.50
35603;DHT22;21725;50.836;4.368;2023-04-24T11:48:01;13.90;94.80
35603;DHT22;21725;50.836;4.368;2023-04-24T11:51:14;14.30;94.70
35603;DHT22;21725;50.836;4.368;2023-04-24T11:54:18;14.30;94.90
35603;DHT22;21725;50.836;4.368;2023-04-24T11:57:23;14.10;95.40
35603;DHT22;21725;50.836;4.368;2023-04-24T12:00:28;14.20;95.40
35603;DHT22;21725;50.836;4.368;2023-04-24T12:03:48;14.10;95.20
35603;DHT22;21725;50.836;4.368;2023-04-24T12:07:04;14.20;96.00
35603;DHT22;21725;50.836;4.368;2023-04-24T12:10:12;14.60;95.20
35603;DHT22;21725;50.836;4.368;2023-04-24T12:13:26;14.70;94.10
35603;DHT22;21725;50.836;4.368;2023-04-24T12:16:27;14.10;94.30
35603;DHT22;21725;50.836;4.368;2023-04-24T12:19:30;14.40;94.90
35603;DHT22;21725;50.836;4.368;2023-04-24T12:25:53;14.60;94.30
35603;DHT22;21725;50.836;4.368;2023-04-24T12:29:01;14.70;93.90
35603;DHT22;21725;50.836;4.368;2023-04-24T12:32:15;14.80;93.70
35603;DHT22;21725;50.836;4.368;2023-04-24T12:35:23;15.00;93.40
35603;DHT22;21725;50.836;4.368;2023-04-24T12:38:35;15.20;93.70
35603;DHT22;21725;50.836;4.368;2023-04-24T12:41:50;14.80;93.10
35603;DHT22;21725;50.836;4.368;2023-04-24T12:45:18;15.40;93.00
35603;DHT22;21725;50.836;4.368;2023-04-24T12:48:30;15.50;92.40
35603;DHT22;21725;50.836;4.368;2023-04-24T12:51:33;15.50;92.60
35603;DHT22;21725;50.836;4.368;2023-04-24T12:54:45;15.60;92.80
35603;DHT22;21725;50.836;4.368;2023-04-24T12:57:46;15.60;92.60
35603;DHT22;21725;50.836;4.368;2023-04-24T13:00:55;15.40;92.40
35603;DHT22;21725;50.836;4.368;2023-04-24T13:04:29;15.00;92.60
35603;DHT22;21725;50.836;4.368;2023-04-24T13:07:37;14.60;93.20
35603;DHT22;21725;50.836;4.368;2023-04-24T13:10:54;14.50;93.80
35603;DHT22;21725;50.836;4.368;2023-04-24T13:13:54;14.60;93.70
35603;DHT22;21725;50.836;4.368;2023-04-24T13:17:01;14.90;92.90
35603;DHT22;21725;50.836;4.368;2023-04-24T13:20:09;15.20;92.90
35603;DHT22;21725;50.836;4.368;2023-04-24T13:23:13;15.60;92.30
35603;DHT22;21725;50.836;4.368;2023-04-24T13:26:21;16.00;91.70
35603;DHT22;21725;50.836;4.368;2023-04-24T13:29:32;16.20;91.30
35603;DHT22;21725;50.836;4.368;2023-04-24T13:32:44;16.00;91.40
35603;DHT22;21725;50.836;4.368;2023-04-24T13:35:47;15.90;91.60
35603;DHT22;21725;50.836;4.368;2023-04-24T13:39:05;16.10;90.80
35603;DHT22;21725;50.836;4.368;2023-04-24T13:42:05;16.30;90.80
35603;DHT22;21725;50.836;4.368;2023-04-24T13:45:26;16.30;90.50
35603;DHT22;21725;50.836;4.368;2023-04-24T13:48:33;16.20;90.80
35603;DHT22;21725;50.836;4.368;2023-04-24T13:51:36;15.90;91.00
35603;DHT22;21725;50.836;4.368;2023-04-24T13:54:41;15.90;91.30
35603;DHT22;21725;50.836;4.368;2023-04-24T13:57:47;15.90;90.70
35603;DHT22;21725;50.836;4.368;2023-04-24T14:00:52;15.90;90.60
35603;DHT22;21725;50.836;4.368;2023-04-24T14:04:06;15.90;90.90
35603;DHT22;21725;50.836;4.368;2023-04-24T14:07:17;16.00;90.50
35603;DHT22;21725;50.836;4.368;2023-04-24T14:10:22;15.90;90.50
35603;DHT22;21725;50.836;4.368;2023-04-24T14:13:25;15.80;90.30
35603;DHT22;21725;50.836;4.368;2023-04-24T14:16:31;15.60;89.60
35603;DHT22;21725;50.836;4.368;2023-04-24T14:23:01;14.50;90.20
35603;DHT22;21725;50.836;4.368;2023-04-24T14:26:02;15.50;89.20
35603;DHT22;21725;50.836;4.368;2023-04-24T14:29:02;15.40;88.70
35603;DHT22;21725;50.836;4.368;2023-04-24T14:32:06;15.30;88.80
35603;DHT22;21725;50.836;4.368;2023-04-24T14:35:11;15.30;88.50
35603;DHT22;21725;50.836;4.368;2023-04-24T14:38:22;15.30;88.70
35603;DHT22;21725;50.836;4.368;2023-04-24T14:41:33;15.30;89.20
35603;DHT22;21725;50.836;4.368;2023-04-24T14:52:15;15.10;90.20
35603;DHT22;21725;50.836;4.368;2023-04-24T14:55:19;14.70;90.70
35603;DHT22;21725;50.836;4.368;2023-04-24T14:58:37;15.00;90.00
35603;DHT22;21725;50.836;4.368;2023-04-24T15:01:44;15.00;90.10
35603;DHT22;21725;50.836;4.368;2023-04-24T15:04:52;14.80;90.20
35603;DHT22;21725;50.836;4.368;2023-04-24T15:07:55;14.80;90.30
35603;DHT22;21725;50.836;4.368;2023-04-24T15:11:04;15.00;90.40
35603;DHT22;21725;50.836;4.368;2023-04-24T15:14:08;15.00;90.00
35603;DHT22;21725;50.836;4.368;2023-04-24T15:17:11;15.00;90.10
35603;DHT22;21725;50.836;4.368;2023-04-24T15:20:12;15.10;89.50
35603;DHT22;21725;50.836;4.368;2023-04-24T15:23:16;15.10;90.00
35603;DHT22;21725;50.836;4.368;2023-04-24T15:29:54;14.90;90.10
35603;DHT22;21725;50.836;4.368;2023-04-24T15:32:57;15.00;89.10
35603;DHT22;21725;50.836;4.368;2023-04-24T15:36:21;15.10;89.50
35603;DHT22;21725;50.836;4.368;2023-04-24T15:39:25;15.10;88.70
35603;DHT22;21725;50.836;4.368;2023-04-24T15:42:35;14.30;89.60
35603;DHT22;21725;50.836;4.368;2023-04-24T15:45:51;15.00;90.00
35603;DHT22;21725;50.836;4.368;2023-04-24T15:49:00;15.00;90.30
35603;DHT22;21725;50.836;4.368;2023-04-24T15:52:09;14.90;90.00
35603;DHT22;21725;50.836;4.368;2023-04-24T15:55:33;14.30;90.00
35603;DHT22;21725;50.836;4.368;2023-04-24T15:58:36;14.40;90.10
35603;DHT22;21725;50.836;4.368;2023-04-24T16:01:50;14.30;90.20
35603;DHT22;21725;50.836;4.368;2023-04-24T16:04:56;14.00;90.80
35603;DHT22;21725;50.836;4.368;2023-04-24T16:08:03;13.40;90.20
35603;DHT22;21725;50.836;4.368;2023-04-24T16:11:17;14.20;90.50
35603;DHT22;21725;50.836;4.368;2023-04-24T16:14:31;14.30;90.80
35603;DHT22;21725;50.836;4.368;2023-04-24T16:17:43;14.40;91.00
35603;DHT22;21725;50.836;4.368;2023-04-24T16:21:04;14.20;91.40
35603;DHT22;21725;50.836;4.368;2023-04-24T16:24:25;14.10;91.50
35603;DHT22;21725;50.836;4.368;2023-04-24T16:27:38;14.10;91.60
35603;DHT22;21725;50.836;4.368;2023-04-24T16:31:11;13.70;92.10
35603;DHT22;21725;50.836;4.368;2023-04-24T16:34:14;14.10;91.90
35603;DHT22;21725;50.836;4.368;2023-04-24T16:37:30;14.10;92.10
35603;DHT22;21725;50.836;4.368;2023-04-24T16:40:33;14.40;91.60
35603;DHT22;21725;50.836;4.368;2023-04-24T16:43:44;14.40;91.20
35603;DHT22;21725;50.836;4.368;2023-04-24T16:46:50;14.30;91.10
35603;DHT22;21725;50.836;4.368;2023-04-24T16:50:01;13.80;91.50
35603;DHT22;21725;50.836;4.368;2023-04-24T16:53:15;14.60;91.50
35603;DHT22;21725;50.836;4.368;2023-04-24T16:56:38;14.20;91.00
35603;DHT22;21725;50.836;4.368;2023-04-24T16:59:50;13.90;91.30
35603;DHT22;21725;50.836;4.368;2023-04-24T17:02:51;14.00;90.90
35603;DHT22;21725;50.836;4.368;2023-04-24T17:05:57;13.90;91.30
35603;DHT22;21725;50.836;4.368;2023-04-24T17:08:58;13.70;91.40
35603;DHT22;21725;50.836;4.368;2023-04-24T17:12:03;13.70;91.80
35603;DHT22;21725;50.836;4.368;2023-04-24T17:15:29;13.70;91.70
35603;DHT22;21725;50.836;4.368;2023-04-24T17:18:32;13.90;91.30
35603;DHT22;21725;50.836;4.368;2023-04-24T17:21:36;13.10;91.80
35603;DHT22;21725;50.836;4.368;2023-04-24T17:24:44;13.40;92.20
35603;DHT22;21725;50.836;4.368;2023-04-24T17:27:55;13.30;91.70
35603;DHT22;21725;50.836;4.368;2023-04-24T17:31:03;13.30;91.80
35603;DHT22;21725;50.836;4.368;2023-04-24T17:34:06;13.30;91.90
35603;DHT22;21725;50.836;4.368;2023-04-24T17:37:32;13.40;91.80
35603;DHT22;21725;50.836;4.368;2023-04-24T17:40:43;13.40;91.50
35603;DHT22;21725;50.836;4.368;2023-04-24T17:44:07;13.40;91.60
35603;DHT22;21725;50.836;4.368;2023-04-24T17:47:10;12.40;91.40
35603;DHT22;21725;50.836;4.368;2023-04-24T17:50:24;13.20;92.10
35603;DHT22;21725;50.836;4.368;2023-04-24T17:53:32;13.30;92.00
35603;DHT22;21725;50.836;4.368;2023-04-24T17:56:44;13.30;92.50
35603;DHT22;21725;50.836;4.368;2023-04-24T17:59:45;13.40;92.10
35603;DHT22;21725;50.836;4.368;2023-04-24T18:02:53;13.40;92.30
35603;DHT22;21725;50.836;4.368;2023-04-24T18:06:05;13.60;92.00
35603;DHT22;21725;50.836;4.368;2023-04-24T18:09:36;13.60;91.80
35603;DHT22;21725;50.836;4.368;2023-04-24T18:12:53;13.40;92.00
35603;DHT22;21725;50.836;4.368;2023-04-24T18:15:56;13.30;92.00
35603;DHT22;21725;50.836;4.368;2023-04-24T18:18:57;13.20;92.30
35603;DHT22;21725;50.836;4.368;2023-04-24T18:21:58;13.10;92.50
35603;DHT22;21725;50.836;4.368;2023-04-24T18:24:59;13.20;92.70
35603;DHT22;21725;50.836;4.368;2023-04-24T18:27:59;13.10;92.70
35603;DHT22;21725;50.836;4.368;2023-04-24T18:31:00;13.00;92.90
35603;DHT22;21725;50.836;4.368;2023-04-24T18:34:01;13.00;93.20
35603;DHT22;21725;50.836;4.368;2023-04-24T18:37:02;12.70;93.50
35603;DHT22;21725;50.836;4.368;2023-04-24T18:40:03;12.40;94.20
35603;DHT22;21725;50.836;4.368;2023-04-24T18:43:05;11.90;95.30
35603;DHT22;21725;50.836;4.368;2023-04-24T18:46:06;11.60;96.40
35603;DHT22;21725;50.836;4.368;2023-04-24T18:49:06;11.40;97.30
35603;DHT22;21725;50.836;4.368;2023-04-24T18:52:07;11.40;98.00
35603;DHT22;21725;50.836;4.368;2023-04-24T18:55:13;11.50;97.80
35603;DHT22;21725;50.836;4.368;2023-04-24T18:58:24;11.50;98.10
35603;DHT22;21725;50.836;4.368;2023-04-24T19:01:26;11.60;98.10
35603;DHT22;21725;50.836;4.368;2023-04-24T19:04:43;11.80;97.60
35603;DHT22;21725;50.836;4.368;2023-04-24T19:07:57;12.00;97.70
35603;DHT22;21725;50.836;4.368;2023-04-24T19:11:11;12.10;97.60
35603;DHT22;21725;50.836;4.368;2023-04-24T19:14:16;12.10;96.50
35603;DHT22;21725;50.836;4.368;2023-04-24T19:17:37;12.00;97.00
35603;DHT22;21725;50.836;4.368;2023-04-24T19:20:48;12.10;97.10
35603;DHT22;21725;50.836;4.368;2023-04-24T19:23:53;11.60;97.60
35603;DHT22;21725;50.836;4.368;2023-04-24T19:26:56;11.10;98.30
35603;DHT22;21725;50.836;4.368;2023-04-24T19:30:08;11.00;98.90
35603;DHT22;21725;50.836;4.368;2023-04-24T19:33:21;11.00;99.50
35603;DHT22;21725;50.836;4.368;2023-04-24T19:36:25;10.90;99.40
35603;DHT22;21725;50.836;4.368;2023-04-24T19:39:45;10.30;99.50
35603;DHT22;21725;50.836;4.368;2023-04-24T19:42:48;11.00;99.90
35603;DHT22;21725;50.836;4.368;2023-04-24T19:45:51;10.00;99.40
35603;DHT22;21725;50.836;4.368;2023-04-24T19:49:02;10.60;99.90
35603;DHT22;21725;50.836;4.368;2023-04-24T19:52:05;10.60;99.90
35603;DHT22;21725;50.836;4.368;2023-04-24T19:55:06;10.60;99.90
35603;DHT22;21725;50.836;4.368;2023-04-24T19:58:09;10.60;99.80
35603;DHT22;21725;50.836;4.368;2023-04-24T20:01:10;10.60;99.90
35603;DHT22;21725;50.836;4.368;2023-04-24T20:04:11;10.60;99.80
35603;DHT22;21725;50.836;4.368;2023-04-24T20:07:14;10.80;99.90
35603;DHT22;21725;50.836;4.368;2023-04-24T20:10:15;11.00;99.90
35603;DHT22;21725;50.836;4.368;2023-04-24T20:13:16;11.10;99.50
35603;DHT22;21725;50.836;4.368;2023-04-24T20:16:39;10.80;99.70
35603;DHT22;21725;50.836;4.368;2023-04-24T20:19:43;11.00;99.90
35603;DHT22;21725;50.836;4.368;2023-04-24T20:22:51;10.90;99.90
35603;DHT22;21725;50.836;4.368;2023-04-24T20:25:52;11.00;99.90
35603;DHT22;21725;50.836;4.368;2023-04-24T20:29:06;11.10;99.90
35603;DHT22;21725;50.836;4.368;2023-04-24T20:32:33;11.00;99.80
35603;DHT22;21725;50.836;4.368;2023-04-24T20:35:54;10.90;99.80
35603;DHT22;21725;50.836;4.368;2023-04-24T20:39:12;10.50;99.90
35603;DHT22;21725;50.836;4.368;2023-04-24T20:42:18;10.60;99.90
35603;DHT22;21725;50.836;4.368;2023-04-24T20:45:21;10.50;99.90
35603;DHT22;21725;50.836;4.368;2023-04-24T20:48:46;10.40;99.90
35603;DHT22;21725;50.836;4.368;2023-04-24T20:52:03;10.50;99.90
35603;DHT22;21725;50.836;4.368;2023-04-24T20:55:16;10.70;99.90
35603;DHT22;21725;50.836;4.368;2023-04-24T20:58:26;11.10;99.90
35603;DHT22;21725;50.836;4.368;2023-04-24T21:01:44;11.00;99.90
35603;DHT22;21725;50.836;4.368;2023-04-24T21:04:50;11.00;99.90
35603;DHT22;21725;50.836;4.368;2023-04-24T21:08:01;11.00;99.90
35603;DHT22;21725;50.836;4.368;2023-04-24T21:11:10;11.00;99.90
35603;DHT22;21725;50.836;4.368;2023-04-24T21:17:45;10.60;99.90
35603;DHT22;21725;50.836;4.368;2023-04-24T21:20:50;10.50;99.90
35603;DHT22;21725;50.836;4.368;2023-04-24T21:24:03;10.40;99.90
35603;DHT22;21725;50.836;4.368;2023-04-24T21:27:04;10.40;99.90
35603;DHT22;21725;50.836;4.368;2023-04-24T21:30:28;10.40;99.90
35603;DHT22;21725;50.836;4.368;2023-04-24T21:33:31;10.50;99.90
35603;DHT22;21725;50.836;4.368;2023-04-24T21:36:43;10.60;99.90
35603;DHT22;21725;50.836;4.368;2023-04-24T21:39:48;10.70;99.90
35603;DHT22;21725;50.836;4.368;2023-04-24T21:43:14;10.60;99.90
35603;DHT22;21725;50.836;4.368;2023-04-24T21:46:24;10.70;99.90
35603;DHT22;21725;50.836;4.368;2023-04-24T21:49:36;10.40;99.90
35603;DHT22;21725;50.836;4.368;2023-04-24T21:52:42;10.20;99.90
35603;DHT22;21725;50.836;4.368;2023-04-24T21:55:46;10.20;99.90
35603;DHT22;21725;50.836;4.368;2023-04-24T21:58:49;10.30;99.90
35603;DHT22;21725;50.836;4.368;2023-04-24T22:02:00;10.60;99.90
35603;DHT22;21725;50.836;4.368;2023-04-24T22:05:08;10.60;99.90
35603;DHT22;21725;50.836;4.368;2023-04-24T22:08:19;10.50;99.90
35603;DHT22;21725;50.836;4.368;2023-04-24T22:11:20;10.30;99.90
35603;DHT22;21725;50.836;4.368;2023-04-24T22:14:41;10.10;99.90
35603;DHT22;21725;50.836;4.368;2023-04-24T22:17:50;10.20;99.90
35603;DHT22;21725;50.836;4.368;2023-04-24T22:20:53;10.30;99.90
35603;DHT22;21725;50.836;4.368;2023-04-24T22:23:56;10.50;99.90
35603;DHT22;21725;50.836;4.368;2023-04-24T22:27:09;10.60;99.90
35603;DHT22;21725;50.836;4.368;2023-04-24T22:30:18;10.50;99.90
35603;DHT22;21725;50.836;4.368;2023-04-24T22:33:31;10.90;99.90
35603;DHT22;21725;50.836;4.368;2023-04-24T22:36:34;10.60;99.90
35603;DHT22;21725;50.836;4.368;2023-04-24T22:39:48;10.50;99.90
35603;DHT22;21725;50.836;4.368;2023-04-24T22:42:49;10.40;99.90
35603;DHT22;21725;50.836;4.368;2023-04-24T22:46:00;10.40;99.70
35603;DHT22;21725;50.836;4.368;2023-04-24T22:49:13;10.20;99.50
35603;DHT22;21725;50.836;4.368;2023-04-24T22:52:28;10.30;99.90
35603;DHT22;21725;50.836;4.368;2023-04-24T22:55:50;10.30;99.80
35603;DHT22;21725;50.836;4.368;2023-04-24T22:58:51;10.30;99.90
35603;DHT22;21725;50.836;4.368;2023-04-24T23:02:10;10.10;99.90
35603;DHT22;21725;50.836;4.368;2023-04-24T23:05:15;10.20;99.90
35603;DHT22;21725;50.836;4.368;2023-04-24T23:09:04;10.10;99.90
35603;DHT22;21725;50.836;4.368;2023-04-24T23:12:17;10.60;99.50
35603;DHT22;21725;50.836;4.368;2023-04-24T23:15:30;10.40;99.40
35603;DHT22;21725;50.836;4.368;2023-04-24T23:18:35;10.20;99.70
35603;DHT22;21725;50.836;4.368;2023-04-24T23:21:45;10.20;99.90
35603;DHT22;21725;50.836;4.368;2023-04-24T23:24:49;10.10;99.80
35603;DHT22;21725;50.836;4.368;2023-04-24T23:28:05;9.90;99.90
35603;DHT22;21725;50.836;4.368;2023-04-24T23:31:11;9.70;99.90
35603;DHT22;21725;50.836;4.368;2023-04-24T23:34:20;9.60;99.90
35603;DHT22;21725;50.836;4.368;2023-04-24T23:37:37;9.90;99.90
35603;DHT22;21725;50.836;4.368;2023-04-24T23:40:40;10.10;99.90
35603;DHT22;21725;50.836;4.368;2023-04-24T23:43:53;10.30;99.90
35603;DHT22;21725;50.836;4.368;2023-04-24T23:46:57;10.60;99.90
35603;DHT22;21725;50.836;4.368;2023-04-24T23:50:15;10.40;99.90
35603;DHT22;21725;50.836;4.368;2023-04-24T23:53:26;10.30;99.80
35603;DHT22;21725;50.836;4.368;2023-04-24T23:56:57;10.10;99.90
